createdAt,value
2023-02-12T00:00:45.405Z,14.43
2023-02-12T00:03:49.685Z,13.38
2023-02-12T00:06:53.550Z,14.50
2023-02-12T00:09:58.607Z,13.77
2023-02-12T00:13:01.730Z,14.65
2023-02-12T00:16:10.065Z,13.98
2023-02-12T00:19:13.243Z,12.77
2023-02-12T00:22:17.538Z,12.77
2023-02-12T00:25:20.785Z,14.10
2023-02-12T00:28:24.395Z,13.75
2023-02-12T00:31:30.740Z,13.77
2023-02-12T00:34:34.233Z,12.70
2023-02-12T00:37:37.336Z,12.25
2023-02-12T00:40:40.911Z,12.73
2023-02-12T00:43:44.577Z,12.32
2023-02-12T00:46:48.140Z,12.13
2023-02-12T00:49:53.025Z,12.00
2023-02-12T00:52:56.401Z,12.50
2023-02-12T00:56:00.347Z,12.32
2023-02-12T00:59:03.827Z,12.48
2023-02-12T01:02:07.002Z,13.48
2023-02-12T01:05:11.115Z,12.32
2023-02-12T01:08:16.521Z,11.73
2023-02-12T01:11:20.960Z,12.27
2023-02-12T01:14:26.157Z,12.45
2023-02-12T01:17:29.547Z,11.93
2023-02-12T01:20:33.597Z,12.13
2023-02-12T01:23:37.225Z,11.77
2023-02-12T01:26:40.420Z,12.45
2023-02-12T01:29:47.024Z,11.65
2023-02-12T01:32:50.328Z,12.98
2023-02-12T01:35:54.272Z,12.80
2023-02-12T01:38:59.356Z,12.55
2023-02-12T01:42:04.370Z,13.27
2023-02-12T01:45:13.560Z,12.75
2023-02-12T01:48:19.474Z,12.70
2023-02-12T01:51:24.403Z,12.90
2023-02-12T01:54:29.363Z,13.00
2023-02-12T01:57:34.840Z,12.05
2023-02-12T02:00:39.270Z,14.57
2023-02-12T02:03:45.366Z,13.18
2023-02-12T02:06:54.578Z,12.43
2023-02-12T02:09:59.214Z,12.73
2023-02-12T02:13:23.694Z,11.57
2023-02-12T02:16:30.759Z,13.00
2023-02-12T02:19:36.640Z,12.00
2023-02-12T02:23:10.261Z,13.53
2023-02-12T02:26:34.001Z,11.43
2023-02-12T02:29:47.716Z,11.65
2023-02-12T02:33:09.998Z,12.13
2023-02-12T02:36:32.192Z,12.55
2023-02-12T02:39:42.112Z,12.52
2023-02-12T02:43:28.442Z,11.82
2023-02-12T02:46:36.552Z,10.80
2023-02-12T02:49:51.448Z,11.80
2023-02-12T02:53:02.749Z,53.65
2023-02-12T02:56:09.018Z,11.40
2023-02-12T02:59:19.014Z,11.27
2023-02-12T03:02:29.587Z,13.15
2023-02-12T03:05:38.293Z,10.80
2023-02-12T03:08:49.856Z,10.13
2023-02-12T03:11:57.554Z,10.85
2023-02-12T03:15:12.514Z,12.52
2023-02-12T03:18:27.043Z,12.83
2023-02-12T03:21:35.573Z,10.50
2023-02-12T03:24:48.131Z,13.07
2023-02-12T03:28:10.089Z,9.97
2023-02-12T03:31:26.225Z,9.75
2023-02-12T03:35:14.979Z,9.05
2023-02-12T03:38:28.408Z,8.38
2023-02-12T03:41:40.457Z,9.45
2023-02-12T03:44:53.530Z,8.45
2023-02-12T03:47:59.938Z,9.85
2023-02-12T03:51:16.270Z,8.67
2023-02-12T03:54:22.294Z,9.00
2023-02-12T03:57:37.193Z,8.63
2023-02-12T04:00:41.242Z,8.23
2023-02-12T04:03:45.167Z,8.07
2023-02-12T04:06:50.592Z,9.10
2023-02-12T04:09:54.204Z,8.23
2023-02-12T04:13:16.305Z,9.30
2023-02-12T04:16:33.318Z,9.73
2023-02-12T04:20:27.793Z,9.07
2023-02-12T04:23:40.274Z,9.53
2023-02-12T04:26:49.318Z,8.35
2023-02-12T04:30:01.479Z,9.10
2023-02-12T04:33:10.850Z,10.03
2023-02-12T04:36:21.290Z,9.82
2023-02-12T04:39:32.981Z,10.27
2023-02-12T04:42:45.002Z,11.30
2023-02-12T04:45:48.119Z,10.95
2023-02-12T04:48:57.687Z,11.40
2023-02-12T04:52:01.900Z,12.00
2023-02-12T04:55:05.481Z,10.97
2023-02-12T04:58:09.237Z,10.75
2023-02-12T05:01:13.000Z,11.60
2023-02-12T05:04:17.576Z,11.33
2023-02-12T05:07:20.959Z,10.15
2023-02-12T05:10:24.126Z,10.68
2023-02-12T05:13:27.953Z,10.05
2023-02-12T05:16:31.087Z,10.60
2023-02-12T05:19:35.278Z,10.07
2023-02-12T05:22:38.587Z,10.77
2023-02-12T05:25:42.028Z,9.63
2023-02-12T05:28:45.291Z,10.18
2023-02-12T05:31:48.799Z,10.40
2023-02-12T05:34:52.129Z,9.33
2023-02-12T05:37:55.797Z,10.30
2023-02-12T05:41:10.835Z,10.35
2023-02-12T05:44:15.299Z,10.32
2023-02-12T05:47:18.596Z,9.65
2023-02-12T05:50:22.177Z,9.23
2023-02-12T05:53:34.550Z,12.73
2023-02-12T05:56:43.986Z,14.90
2023-02-12T05:59:47.554Z,15.43
2023-02-12T06:02:51.014Z,14.50
2023-02-12T06:05:55.065Z,13.77
2023-02-12T06:08:58.836Z,15.55
2023-02-12T06:12:02.218Z,14.57
2023-02-12T06:15:05.764Z,16.55
2023-02-12T06:18:09.399Z,17.20
2023-02-12T06:21:12.632Z,17.75
2023-02-12T06:24:17.619Z,18.62
2023-02-12T06:27:21.531Z,17.00
2023-02-12T06:30:25.054Z,16.80
2023-02-12T06:33:28.574Z,15.27
2023-02-12T06:36:32.646Z,15.53
2023-02-12T06:39:36.248Z,16.60
2023-02-12T06:42:39.624Z,16.15
2023-02-12T06:45:42.815Z,19.02
2023-02-12T06:48:46.528Z,17.10
2023-02-12T06:51:49.811Z,17.55
2023-02-12T06:54:53.620Z,19.62
2023-02-12T06:57:56.731Z,30.53
2023-02-12T07:01:18.783Z,27.02
2023-02-12T07:04:22.352Z,22.48
2023-02-12T07:07:25.877Z,22.27
2023-02-12T07:10:29.116Z,21.83
2023-02-12T07:13:35.063Z,20.88
2023-02-12T07:16:41.365Z,19.35
2023-02-12T07:19:44.810Z,20.55
2023-02-12T07:22:48.035Z,21.58
2023-02-12T07:25:59.534Z,22.90
2023-02-12T07:29:03.092Z,19.10
2023-02-12T07:32:07.423Z,16.30
2023-02-12T07:35:10.724Z,16.30
2023-02-12T07:38:14.458Z,17.67
2023-02-12T07:41:21.842Z,16.35
2023-02-12T07:44:25.584Z,14.70
2023-02-12T07:47:28.838Z,13.80
2023-02-12T07:50:32.230Z,11.88
2023-02-12T07:53:36.246Z,10.10
2023-02-12T07:56:44.269Z,10.43
2023-02-12T07:59:47.412Z,9.70
2023-02-12T08:02:54.690Z,8.77
2023-02-12T08:05:58.352Z,8.57
2023-02-12T08:09:03.698Z,9.13
2023-02-12T08:12:07.473Z,8.32
2023-02-12T08:15:11.549Z,7.82
2023-02-12T08:18:17.193Z,8.00
2023-02-12T08:21:23.376Z,7.80
2023-02-12T08:24:26.913Z,7.95
2023-02-12T08:27:30.238Z,6.72
2023-02-12T08:30:33.816Z,5.23
2023-02-12T08:33:37.473Z,6.15
2023-02-12T08:36:41.103Z,5.78
2023-02-12T08:39:44.253Z,4.70
2023-02-12T08:42:47.612Z,5.00
2023-02-12T08:45:50.735Z,4.15
2023-02-12T08:49:00.109Z,4.00
2023-02-12T08:52:03.599Z,4.20
2023-02-12T08:55:07.401Z,3.83
2023-02-12T08:58:10.622Z,3.75
2023-02-12T09:01:25.433Z,5.20
2023-02-12T09:04:29.543Z,4.95
2023-02-12T09:07:33.144Z,4.05
2023-02-12T09:10:40.676Z,4.07
2023-02-12T09:13:46.254Z,4.12
2023-02-12T09:16:52.671Z,3.80
2023-02-12T09:19:57.578Z,4.60
2023-02-12T09:23:01.018Z,4.43
2023-02-12T09:26:06.200Z,4.30
2023-02-12T09:29:10.026Z,5.20
2023-02-12T09:32:13.604Z,4.40
2023-02-12T09:35:18.735Z,3.90
2023-02-12T09:38:22.238Z,4.00
2023-02-12T09:41:44.494Z,3.78
2023-02-12T09:45:05.908Z,3.65
2023-02-12T09:48:43.354Z,3.83
2023-02-12T09:51:54.026Z,4.18
2023-02-12T09:54:58.375Z,4.32
2023-02-12T09:58:10.652Z,4.00
2023-02-12T10:01:17.441Z,4.00
2023-02-12T10:04:22.770Z,3.30
2023-02-12T10:07:32.346Z,3.80
2023-02-12T10:10:52.954Z,3.87
2023-02-12T10:14:18.419Z,3.60
2023-02-12T10:17:37.552Z,2.92
2023-02-12T10:20:58.812Z,3.43
2023-02-12T10:24:21.184Z,4.00
2023-02-12T10:27:41.168Z,3.42
2023-02-12T10:31:04.457Z,3.67
2023-02-12T10:34:25.232Z,3.00
2023-02-12T10:37:32.846Z,3.20
2023-02-12T10:40:39.380Z,3.57
2023-02-12T10:43:44.811Z,3.78
2023-02-12T10:46:48.467Z,3.80
2023-02-12T10:50:01.068Z,3.47
2023-02-12T10:53:04.647Z,4.53
2023-02-12T10:56:12.278Z,3.83
2023-02-12T10:59:24.297Z,3.70
2023-02-12T11:02:32.411Z,3.33
2023-02-12T11:05:36.734Z,3.15
2023-02-12T11:08:42.249Z,3.20
2023-02-12T11:11:49.594Z,3.20
2023-02-12T11:15:03.756Z,3.50
2023-02-12T11:18:20.382Z,3.92
2023-02-12T11:21:25.438Z,4.18
2023-02-12T11:24:36.979Z,3.00
2023-02-12T11:27:45.779Z,3.50
2023-02-12T11:31:00.341Z,3.28
2023-02-12T11:34:04.698Z,3.67
2023-02-12T11:37:19.459Z,3.22
2023-02-12T11:40:29.974Z,3.00
2023-02-12T11:43:37.512Z,3.90
2023-02-12T11:46:49.999Z,2.90
2023-02-12T11:50:05.962Z,3.03
2023-02-12T11:53:20.959Z,3.10
2023-02-12T11:56:25.555Z,2.70
2023-02-12T11:59:39.965Z,2.70
2023-02-12T12:03:16.747Z,2.67
2023-02-12T12:06:27.724Z,12.77
2023-02-12T12:10:01.786Z,13.75
2023-02-12T12:13:14.248Z,13.27
2023-02-12T12:16:47.441Z,16.53
2023-02-12T12:20:05.400Z,15.23
2023-02-12T12:23:49.212Z,15.25
2023-02-12T12:27:03.954Z,15.02
2023-02-12T12:30:19.065Z,15.20
2023-02-12T12:33:32.524Z,15.68
2023-02-12T12:37:03.330Z,16.08
2023-02-12T12:40:20.850Z,15.88
2023-02-12T12:43:36.617Z,19.67
2023-02-12T12:46:48.131Z,18.63
2023-02-12T12:50:27.138Z,19.67
2023-02-12T12:53:57.714Z,15.15
2023-02-12T12:57:19.745Z,20.77
2023-02-12T13:01:06.903Z,14.13
2023-02-12T13:04:45.736Z,81.23
2023-02-12T13:07:53.318Z,16.45
2023-02-12T13:11:30.681Z,15.70
2023-02-12T13:14:39.095Z,9.40
2023-02-12T13:17:46.299Z,11.40
2023-02-12T13:21:16.282Z,13.38
2023-02-12T13:24:32.129Z,13.77
2023-02-12T13:27:45.680Z,13.27
2023-02-12T13:30:54.008Z,14.00
2023-02-12T13:34:02.829Z,13.43
2023-02-12T13:37:16.140Z,14.60
2023-02-12T13:40:26.578Z,12.18
2023-02-12T13:43:48.600Z,13.73
2023-02-12T13:47:04.925Z,13.80
2023-02-12T13:50:24.627Z,13.30
2023-02-12T13:53:46.485Z,13.52
2023-02-12T13:56:54.727Z,13.98
2023-02-12T14:00:00.425Z,15.27
2023-02-12T14:03:10.373Z,14.40
2023-02-12T14:06:22.336Z,15.02
2023-02-12T14:10:00.348Z,13.85
2023-02-12T14:13:13.392Z,14.97
2023-02-12T14:16:20.760Z,15.80
2023-02-12T14:19:50.863Z,15.90
2023-02-12T14:23:21.792Z,14.77
2023-02-12T14:26:37.480Z,15.27
2023-02-12T14:30:24.180Z,16.40
2023-02-12T14:33:29.148Z,16.42
2023-02-12T14:36:33.361Z,16.87
2023-02-12T14:39:38.585Z,15.95
2023-02-12T14:42:55.500Z,16.75
2023-02-12T14:46:25.857Z,17.47
2023-02-12T14:49:53.366Z,17.27
2023-02-12T14:53:30.938Z,19.10
2023-02-12T14:56:47.542Z,19.80
2023-02-12T15:00:13.960Z,19.53
2023-02-12T15:03:20.631Z,18.80
2023-02-12T15:06:38.537Z,21.70
2023-02-12T15:09:52.957Z,21.12
2023-02-12T15:13:34.984Z,19.40
2023-02-12T15:16:49.449Z,21.75
2023-02-12T15:20:04.409Z,21.60
2023-02-12T15:23:33.810Z,20.37
2023-02-12T15:26:47.328Z,20.25
2023-02-12T15:29:56.205Z,18.58
2023-02-12T15:33:14.267Z,19.00
2023-02-12T15:36:27.393Z,17.73
2023-02-12T15:39:45.371Z,19.20
2023-02-12T15:43:00.089Z,20.37
2023-02-12T15:46:16.863Z,19.77
2023-02-12T15:49:25.564Z,22.75
2023-02-12T15:52:36.599Z,21.87
2023-02-12T15:55:46.935Z,23.45
2023-02-12T15:58:54.692Z,23.80
2023-02-12T16:02:03.984Z,20.85
2023-02-12T16:05:16.221Z,22.35
2023-02-12T16:08:23.504Z,25.10
2023-02-12T16:11:31.000Z,26.00
2023-02-12T16:14:49.148Z,23.77
2023-02-12T16:17:55.889Z,24.15
2023-02-12T16:21:22.956Z,25.67
2023-02-12T16:24:48.688Z,26.77
2023-02-12T16:28:08.929Z,24.75
2023-02-12T16:31:17.456Z,26.47
2023-02-12T16:34:37.471Z,26.80
2023-02-12T16:37:51.212Z,30.60
2023-02-12T16:41:35.817Z,29.40
2023-02-12T16:44:42.474Z,30.80
2023-02-12T16:47:51.666Z,36.53
2023-02-12T16:50:59.301Z,33.83
2023-02-12T16:54:06.109Z,37.67
2023-02-12T16:57:13.518Z,38.60
2023-02-12T17:00:24.560Z,40.92
2023-02-12T17:03:33.307Z,39.70
2023-02-12T17:06:38.244Z,40.12
2023-02-12T17:09:44.839Z,40.25
2023-02-12T17:12:52.680Z,47.38
2023-02-12T17:16:01.917Z,48.75
2023-02-12T17:19:06.966Z,49.88
2023-02-12T17:22:31.237Z,49.53
2023-02-12T17:25:39.286Z,42.37
2023-02-12T17:28:45.360Z,39.13
2023-02-12T17:31:55.374Z,36.40
2023-02-12T17:35:02.968Z,37.60
2023-02-12T17:38:08.913Z,35.85
2023-02-12T17:41:15.636Z,36.33
2023-02-12T17:44:21.481Z,37.03
2023-02-12T17:47:27.106Z,40.85
2023-02-12T17:50:32.608Z,42.25
2023-02-12T17:53:39.733Z,40.97
2023-02-12T17:56:44.275Z,40.90
2023-02-12T17:59:49.989Z,37.60
2023-02-12T18:02:57.124Z,36.33
2023-02-12T18:06:04.489Z,37.30
2023-02-12T18:09:12.623Z,36.05
2023-02-12T18:12:19.018Z,39.03
2023-02-12T18:15:27.900Z,39.25
2023-02-12T18:18:36.075Z,38.03
2023-02-12T18:21:48.015Z,38.42
2023-02-12T18:24:52.750Z,36.75
2023-02-12T18:27:58.485Z,38.57
2023-02-12T18:31:05.887Z,38.40
2023-02-12T18:34:11.242Z,37.35
2023-02-12T18:37:18.972Z,37.77
2023-02-12T18:40:28.468Z,37.85
2023-02-12T18:43:37.686Z,36.22
2023-02-12T18:46:47.121Z,36.38
2023-02-12T18:49:54.561Z,38.10
2023-02-12T18:53:02.348Z,38.78
2023-02-12T18:56:11.085Z,39.50
2023-02-12T18:59:19.380Z,40.50
2023-02-12T19:02:27.473Z,41.90
2023-02-12T19:05:38.456Z,40.53
2023-02-12T19:08:44.352Z,41.53
2023-02-12T19:11:53.604Z,48.80
2023-02-12T19:15:01.018Z,55.83
2023-02-12T19:18:10.469Z,56.92
2023-02-12T19:21:20.740Z,55.00
2023-02-12T19:24:40.857Z,55.17
2023-02-12T19:27:52.192Z,50.67
2023-02-12T19:30:57.676Z,50.50
2023-02-12T19:34:09.761Z,47.67
2023-02-12T19:37:17.143Z,50.10
2023-02-12T19:40:23.161Z,48.33
2023-02-12T19:43:30.089Z,45.88
2023-02-12T19:46:39.901Z,49.22
2023-02-12T19:49:46.513Z,46.65
2023-02-12T19:52:52.823Z,49.97
2023-02-12T19:56:05.517Z,46.00
2023-02-12T19:59:17.808Z,46.92
2023-02-12T20:02:23.166Z,60.87
2023-02-12T20:05:30.830Z,51.97
2023-02-12T20:08:40.287Z,48.67
2023-02-12T20:11:46.720Z,52.80
2023-02-12T20:14:51.876Z,50.33
2023-02-12T20:17:59.685Z,51.30
2023-02-12T20:21:12.985Z,51.72
2023-02-12T20:24:19.787Z,51.08
2023-02-12T20:27:26.964Z,52.15
2023-02-12T20:30:35.221Z,54.47
2023-02-12T20:33:41.223Z,53.80
2023-02-12T20:36:48.060Z,50.12
2023-02-12T20:39:55.794Z,44.38
2023-02-12T20:43:03.217Z,47.73
2023-02-12T20:46:12.382Z,46.20
2023-02-12T20:49:20.462Z,48.00
2023-02-12T20:52:26.422Z,46.90
2023-02-12T20:55:31.526Z,50.72
2023-02-12T20:58:36.493Z,51.97
2023-02-12T21:01:43.645Z,53.00
2023-02-12T21:04:52.432Z,47.67
2023-02-12T21:07:59.089Z,46.37
2023-02-12T21:11:13.636Z,43.03
2023-02-12T21:14:23.129Z,54.07
2023-02-12T21:17:28.475Z,50.67
2023-02-12T21:20:33.676Z,50.22
2023-02-12T21:23:39.067Z,46.53
2023-02-12T21:26:45.886Z,47.85
2023-02-12T21:29:55.265Z,45.38
2023-02-12T21:33:06.827Z,44.50
2023-02-12T21:36:15.337Z,50.07
2023-02-12T21:39:29.571Z,47.10
2023-02-12T21:42:33.772Z,55.95
2023-02-12T21:45:38.454Z,55.10
2023-02-12T21:48:43.017Z,53.03
2023-02-12T21:51:50.617Z,47.97
2023-02-12T21:54:58.312Z,48.75
2023-02-12T21:58:03.956Z,48.08
2023-02-12T22:01:16.612Z,46.50
2023-02-12T22:04:21.516Z,43.10
2023-02-12T22:07:26.266Z,40.23
2023-02-12T22:10:29.822Z,40.38
2023-02-12T22:13:33.489Z,39.28
2023-02-12T22:16:37.540Z,36.90
2023-02-12T22:19:41.053Z,37.28
2023-02-12T22:22:44.800Z,33.90
2023-02-12T22:25:48.107Z,34.40
2023-02-12T22:28:54.539Z,33.25
2023-02-12T22:31:58.638Z,33.15
2023-02-12T22:35:02.249Z,27.33
2023-02-12T22:38:05.661Z,29.83
2023-02-12T22:41:10.348Z,28.83
2023-02-12T22:44:14.811Z,27.65
2023-02-12T22:47:18.344Z,31.17
2023-02-12T22:50:21.541Z,32.33
2023-02-12T22:53:26.015Z,32.20
2023-02-12T22:56:29.235Z,34.10
2023-02-12T22:59:32.710Z,34.92
2023-02-12T23:02:36.609Z,32.28
2023-02-12T23:05:40.119Z,31.87
2023-02-12T23:08:44.050Z,28.80
2023-02-12T23:11:49.001Z,28.92
2023-02-12T23:14:52.194Z,28.38
2023-02-12T23:17:55.574Z,32.10
2023-02-12T23:20:59.508Z,32.65
2023-02-12T23:24:03.089Z,38.58
2023-02-12T23:27:06.401Z,41.83
2023-02-12T23:30:10.509Z,38.92
2023-02-12T23:33:13.703Z,35.50
2023-02-12T23:36:17.329Z,34.42
2023-02-12T23:39:20.712Z,32.00
2023-02-12T23:42:24.187Z,31.98
2023-02-12T23:45:28.521Z,31.45
2023-02-12T23:48:32.596Z,31.30
2023-02-12T23:51:35.817Z,31.58
2023-02-12T23:54:40.868Z,30.08
2023-02-12T23:57:44.043Z,32.10
